Tiempo atmosférico en la estación meteorológica de Santander, Cantabria (52 m.)



Fecha
DESCASC
Temp. máxima en grados centígrados (hora)
DESCASC
Temp. mínima en grados centígrados (hora)
DESCASC
Temp. media en grados centígrados
DESCASC
Racha de viento máxima en m/sg (hora)
DESCASC
Velocidad máxima media en intervalos de 10 minutos(hora)
DESCASC
Precipitaciones diarias en mm
DESCASC
Precipitaciones de 00:00 a 06:00 en mm
DESCASC
Precipitaciones de 06:00 a 12:00 en mm
DESCASC
Precipitaciones de 12:00 a 18:00 en mm
DESCASC
Precipitaciones de 18:00 a 24:00 en mm
DESCASC
24-09-2020 21.5 (15:50) 13.2 (23:40) 17.3 25.56 (21:10) 17.78 (20:20) 19 7.6 0 0 11.4
23-09-2020 22.8 (12:00) 17 (00:00) 19.9 10.83 (13:20) 7.5 (13:30) 6.6 0 0 0 6.6
22-09-2020 21.5 (15:50) 16.6 (00:00) 19.1 5.28 (14:30) 4.17 (14:40) 0 0 0 0 0
21-09-2020 22 (16:20) 17.6 (00:00) 19.8 6.39 (02:10) 4.17 (02:00) 0 0 0 0 0
20-09-2020 22.2 (15:40) 17.8 (00:00) 20 7.78 (01:30) 5 (01:30) 0 0 0 0 0
19-09-2020 23.5 (11:50) 17.7 (00:00) 20.6 11.94 (00:40) 8.06 (13:40) 6.8 1.4 0 5.4 0
18-09-2020 29.4 (16:30) 18.4 (00:00) 23.9 19.44 (03:20) 10.56 (03:20) 3.2 0.2 1.2 0 1.8
17-09-2020 25.9 (14:10) 19.9 (00:00) 22.9 9.44 (21:20) 6.67 (16:20) 0.4 0.2 0.2 0 0
16-09-2020 24 (15:40) 19.1 (00:00) 21.6 6.39 (14:00) 5 (15:50) 0 0 0 0 0
15-09-2020 23.5 (17:00) 18.2 (00:00) 20.9 10 (01:20) 6.11 (03:20) 4.8 4.8 0 0 0
14-09-2020 29.5 (04:40) 19.7 (00:00) 24.6 14.44 (07:20) 8.33 (07:20) 0 0 0 0 0
13-09-2020 24.9 (18:00) 17.5 (00:00) 21.2 10 (17:10) 6.67 (16:40) 0 0 0 0 0
12-09-2020 22.7 (13:40) 17.3 (00:00) 20 11.39 (15:20) 8.61 (15:20) 0 0 0 0 0
11-09-2020 22.9 (14:30) 17 (00:00) 19.9 11.11 (16:20) 8.61 (17:10) 0 0 0 0 0
10-09-2020 22.4 (16:10) 17.6 (00:00) 20 4.72 (13:30) 3.33 (13:30) 0 0 0 0 0
09-09-2020 23 (18:00) 16 (00:00) 19.5 7.78 (00:40) 5.56 (00:50) 0 0 0 0 0
08-09-2020 22 (15:50) 14.9 (00:00) 18.4 12.22 (20:30) 9.17 (19:30) 0 0 0 0 0
07-09-2020 22.5 (14:10) 16.5 (23:40) 19.5 10.56 (06:10) 7.22 (06:20) 0 0 0 0 0
06-09-2020 21.1 (14:50) 17.7 (00:00) 19.4 9.72 (21:30) 7.5 (21:40) 0 0 0 0 0
05-09-2020 22.8 (12:50) 18.2 (00:00) 20.5 10.28 (21:50) 8.33 (22:00) 0 0 0 0 0
04-09-2020 23.9 (16:00) 17.2 (00:00) 20.6 7.5 (23:30) 5.28 (23:30) 0 0 0 0 0
03-09-2020 22.9 (14:40) 15 (00:00) 18.9 10.83 (13:00) 8.61 (12:50) 0 0 0 0 0
02-09-2020 22.9 (15:20) 17.3 (00:00) 20.1 9.17 (18:20) 7.5 (18:20) 0 0 0 0 0
01-09-2020 22 (15:40) 15.9 (00:00) 18.9 6.39 (18:40) 4.17 (18:30) 0.2 0 0 0 0.2
31-08-2020 21.8 (13:00) 12.9 (00:00) 17.3 11.11 (16:50) 8.33 (17:40) 0 0 0 0 0
30-08-2020 19.8 (17:10) 14.7 (00:00) 17.2 13.33 (02:00) 10.28 (02:10) 0.5 0.1 0 0.4 0
29-08-2020 19.3 (14:50) 14.2 (00:00) 16.7 20.83 (16:20) 13.33 (16:30) 32 2.9 27.4 1.1 0.6
28-08-2020 22 (00:00) 16.9 (00:00) 19.4 13.89 (14:40) 9.72 (14:40) 6 0.8 4.4 0.8 0
27-08-2020 24.3 (11:20) 19.6 (00:00) 21.9 8.61 (13:00) 6.39 (13:00) 0 0 0 0 0
26-08-2020 25.1 (13:50) 20.6 (00:00) 22.9 8.89 (16:40) 7.22 (16:50) 0 0 0 0 0

Gráficas

Temp. máximas Temp. mínimas Temp. medias Precipitaciones Rachas de viento máximas Velocidades máximas media en intervalos de 10 minutos

Datos horarios

Fecha y hora oficial Temperatura (ºC) Velocidad del viento (km/h) Dirección del viento Racha (km/h) Dirección de racha Precipitación (mm) Presión (hPa) Tendencia (hPa) Humedad (%)
2020-09-24 23:00:00 14.1 48 Oeste 71 Oeste 2.4 1008.4 3.5 88
2020-09-24 22:00:00 14.6 49 Noroeste 92 Noroeste 2.8 1007.5 2.8 88
2020-09-24 21:00:00 16.8 53 Noroeste 85 Noroeste 0 1006 -- 79
2020-09-24 20:00:00 17.9 52 Noroeste 82 Oeste 0 1004.9 -- 72
2020-09-24 19:00:00 19.1 49 Noroeste 72 Oeste 0 1004.7 -- 70
2020-09-24 18:00:00 19.2 42 Oeste 63 Noroeste 0 1004.3 -- 63
2020-09-24 17:00:00 19.4 31 Oeste 53 Noroeste 0 1004.8 -- 71
2020-09-24 16:00:00 21 20 Oeste 34 Noroeste 0 1004.3 -- 57
2020-09-24 15:00:00 20.8 20 Oeste 32 Oeste 0 1004.8 -- 63
2020-09-24 14:00:00 20.5 22 Oeste 36 Oeste 0 1005.1 -- 59
2020-09-24 13:00:00 19.5 23 Oeste 33 Noroeste 0 1005.5 -- 65
2020-09-24 12:00:00 18.6 22 Oeste 34 Oeste 0 1005.8 -- 69
2020-09-24 11:00:00 18.1 24 Oeste 37 Oeste 0 1005.6 -- 71
2020-09-24 10:00:00 17.3 12 Sudoeste 23 Sudoeste 0 1005.4 -- 81
2020-09-24 09:00:00 16.6 15 Sudoeste 24 Sudoeste 0 1005.5 -- 86
2020-09-24 08:00:00 16.3 12 Sudoeste 26 Sudoeste 0 1005.4 -- 89
2020-09-24 07:00:00 16.4 14 Sudoeste 33 Noroeste 0 1005.5 -- 93
2020-09-24 06:00:00 17.2 25 Oeste 38 Oeste 0.4 1005.6 -- 89
2020-09-24 05:00:00 16.5 16 Oeste 35 Oeste 0.8 1005.9 -- 98
2020-09-24 04:00:00 16.7 22 Oeste 36 Noroeste 1.6 1006.1 -- 98
2020-09-24 03:00:00 17.2 17 Oeste 27 Norte 3.2 1006.3 -- 96
2020-09-24 02:00:00 18.4 21 Noroeste 34 Noroeste 0.6 1005.9 -- 91
2020-09-24 01:00:00 17.4 14 Sudoeste 27 Sudoeste 1 1005.9 -- 95
2020-09-24 00:00:00 17.6 16 Sudoeste 26 Oeste 6.2 1006.1 -- 94
2020-09-23 23:00:00 18.4 12 Sudoeste 19 Sudoeste 0 1005.8 -- 90
2020-09-23 22:00:00 18.3 12 Sudoeste 23 Oeste 0.4 1005.7 -- 90
2020-09-23 21:00:00 19.5 10 Sudoeste 17 Sudoeste 0 1005.2 -- 83
2020-09-23 20:00:00 19.8 12 Oeste 23 Noroeste 0 1004.5 -- 82
2020-09-23 19:00:00 20.2 17 Oeste 32 Noroeste 0 1004.4 -- 77
2020-09-23 18:00:00 20.3 24 Noroeste 33 Noroeste 0 1004.2 -- 78
2020-09-23 17:00:00 20.4 23 Noroeste 32 Noroeste 0 1004.2 -- 78
2020-09-23 16:00:00 20.8 16 Noroeste 35 Noroeste 0 1004.1 -- 81
2020-09-23 15:00:00 21.6 21 Oeste 33 Oeste 0 1004.3 -- 77
2020-09-23 14:00:00 22 22 Oeste 39 Noroeste 0 1004.3 -- 77
2020-09-23 13:00:00 21.9 21 Oeste 31 Oeste 0 1004 -- 77
2020-09-23 12:00:00 22.8 21 Oeste 31 Oeste 0 1003.4 -- 73
2020-09-23 11:00:00 20.7 22 Oeste 34 Oeste 0 1002.5 -- 79
2020-09-23 10:00:00 20.4 6 Oeste 19 Sudoeste 0 1001.7 -- 76
2020-09-23 09:00:00 18.5 5 Sur 18 Sur 0 1001.1 -- 81
2020-09-23 08:00:00 17.1 13 Sur 16 Sur 0 1001 -- 89
2020-09-23 07:00:00 17.2 9 Sur 15 Sur 0 1001.7 -- 93
2020-09-23 06:00:00 17.5 12 Sur 15 Sur 0 1002.3 -- 93
2020-09-23 05:00:00 17.5 12 Sur 14 Sur 0 1003 -- 93
2020-09-23 04:00:00 17.5 9 Sur 13 Sur 0 1003.6 -- 95
2020-09-23 03:00:00 17.5 11 Sudeste 14 Sur 0 1004.3 -- 94
2020-09-23 02:00:00 18.2 7 Sur 8 Sudeste 0 1004.9 -- 93
2020-09-23 01:00:00 18.9 4 Oeste 8 Oeste 0 1005.5 -- 90
2020-09-23 00:00:00 19.4 3 Sudoeste 8 Sur 0 1006 -- 88
2020-09-22 23:00:00 19.5 5 Sudoeste 8 Sudoeste 0 1006.4 -- 89
2020-09-22 22:00:00 19.7 4 Oeste 8 Sudoeste 0 1006.3 -- 89
2020-09-22 21:00:00 19.8 0 Calma 9 Noroeste 0 1006.1 -- 88
2020-09-22 20:00:00 19.9 6 Noroeste 10 Noroeste 0 1006.1 -- 86
2020-09-22 19:00:00 20.1 6 Norte 10 Norte 0 1005.9 -- 85
2020-09-22 18:00:00 20.7 8 Noroeste 14 Noroeste 0 1006.2 -- 81
2020-09-22 17:00:00 20.8 8 Noroeste 13 Noroeste 0 1006.8 -- 82
2020-09-22 16:00:00 21.5 10 Norte 17 Norte 0 1007.2 -- 79
2020-09-22 15:00:00 20.7 14 Norte 19 Norte 0 1007.7 -- 80
2020-09-22 14:00:00 20.2 13 Noroeste 17 Noroeste 0 1008.3 -- 81
2020-09-22 13:00:00 20.2 6 Noroeste 10 Noroeste 0 1008.6 -- 83
2020-09-22 12:00:00 20 6 Noroeste 13 Norte 0 1009.1 -- 82
2020-09-22 11:00:00 20.5 5 Oeste 12 Oeste 0 1009.2 -- 75
2020-09-22 10:00:00 18.8 6 Sudoeste 11 Sudoeste 0 1009.1 -- 83
2020-09-22 09:00:00 17.3 8 Sur 14 Sudoeste 0 1008.9 -- 90
2020-09-22 08:00:00 16.7 8 Sudoeste 14 Sur 0 1008.8 -- 92
2020-09-22 07:00:00 17 10 Sudoeste 13 Sur 0 1008.8 -- 92
2020-09-22 06:00:00 16.8 11 Sur 13 Sur 0 1009.2 -- 94
2020-09-22 05:00:00 17.2 9 Sur 13 Sur 0 1009.4 -- 92
2020-09-22 04:00:00 17.4 11 Sur 13 Sur 0 1010 -- 92
2020-09-22 03:00:00 18.1 8 Sudoeste 12 Sudoeste 0 1010.5 -- 90
2020-09-22 02:00:00 18.2 8 Sudoeste 13 Sudoeste 0 1011 -- 90
2020-09-22 01:00:00 18.5 5 Sudoeste 10 Sudoeste 0 1011.2 -- 89
2020-09-22 00:00:00 18.6 8 Sudoeste 13 Sudoeste 0 1011.4 -- 90
2020-09-21 23:00:00 18.7 9 Sudoeste 13 Sudoeste 0 1011.7 -- 91
2020-09-21 22:00:00 19.2 6 Sudoeste 8 Sudoeste 0 1011.9 -- 87
2020-09-21 21:00:00 19.3 6 Noroeste 14 Noroeste 0 1011.6 -- 84
2020-09-21 20:00:00 20 8 Noroeste 13 Noroeste 0 1011.6 -- 81
2020-09-21 19:00:00 21 8 Noroeste 15 Noroeste 0 1011.4 -- 78
2020-09-21 18:00:00 21.4 9 Noroeste 16 Noroeste 0 1011.2 -- 76
2020-09-21 17:00:00 21.6 10 Noroeste 14 Noroeste 0 1011.5 -- 75
2020-09-21 16:00:00 21.7 8 Noroeste 14 Noroeste 0 1011.5 -- 78
2020-09-21 15:00:00 21.5 8 Noroeste 13 Noroeste 0 1011.9 -- 81
2020-09-21 14:00:00 21.2 9 Noroeste 16 Noroeste 0 1012.4 -- 80
2020-09-21 13:00:00 21.3 11 Noroeste 17 Noroeste 0 1012.4 -- 77
2020-09-21 12:00:00 21.3 11 Oeste 19 Oeste 0 1012.2 -- 78
2020-09-21 11:00:00 20 13 Oeste 17 Oeste 0 1012.1 -- 82
2020-09-21 10:00:00 19.5 10 Sudoeste 16 Oeste 0 1011.9 -- 83
2020-09-21 09:00:00 18.3 8 Sudoeste 17 Sudoeste 0 1011.7 -- 88
2020-09-21 08:00:00 17.7 10 Sudoeste 15 Sudoeste 0 1011.2 -- 89
2020-09-21 07:00:00 18 10 Sudoeste 16 Sudoeste 0 1010.9 -- 90
2020-09-21 06:00:00 17.8 10 Sudoeste 19 Sudoeste 0 1010.8 -- 90
2020-09-21 05:00:00 17.9 12 Sudoeste 23 Sudoeste 0 1010.8 -- 90
2020-09-21 04:00:00 18.1 12 Sudoeste 19 Sudoeste 0 1010.9 -- 90
2020-09-21 03:00:00 18 12 Sudoeste 23 Sudoeste 0 1011.3 -- 91
2020-09-21 02:00:00 18.1 15 Sudoeste 22 Sudoeste 0 1011.3 -- 92
2020-09-21 01:00:00 18.4 12 Sudoeste 20 Sudoeste 0 1011.3 -- 92
2020-09-21 00:00:00 18.6 9 Sudoeste 15 Sudoeste 0 1011.5 -- 91
2020-09-20 23:00:00 18.8 10 Sudoeste 15 Sudoeste 0 1011.5 -- 91
2020-09-20 22:00:00 19.2 10 Oeste 17 Sudoeste 0 1011.2 -- 90
2020-09-20 21:00:00 19.5 11 Sudoeste 16 Sudoeste 0 1010.7 -- 88
2020-09-20 20:00:00 20.7 9 Oeste 15 Oeste 0 1010.4 -- 83
2020-09-20 19:00:00 20.9 8 Noroeste 20 Noroeste 0 1010.1 -- 81
2020-09-20 18:00:00 21.7 14 Noroeste 20 Noroeste 0 1009.8 -- 76
2020-09-20 17:00:00 21.3 15 Noroeste 21 Noroeste 0 1009.5 -- 79
2020-09-20 16:00:00 21.7 11 Noroeste 20 Noroeste 0 1009.6 -- 82
2020-09-20 15:00:00 21.5 13 Noroeste 24 Noroeste 0 1009.6 -- 81
2020-09-20 14:00:00 21.8 17 Oeste 23 Oeste 0 1009.8 -- 76
2020-09-20 13:00:00 21.9 17 Oeste 23 Oeste 0 1009.8 -- 73
2020-09-20 12:00:00 21.6 14 Oeste 21 Oeste 0 1009.9 -- 72
2020-09-20 11:00:00 21 13 Oeste 20 Oeste 0 1009.8 -- 70
2020-09-20 10:00:00 19.6 7 Sudoeste 17 Sudoeste 0 1009.2 -- 78
2020-09-20 09:00:00 18.2 10 Sudoeste 19 Sudoeste 0 1009 -- 82
2020-09-20 08:00:00 18 11 Sudoeste 22 Sudoeste 0 1008.4 -- 82
2020-09-20 07:00:00 18.1 10 Sudoeste 21 Sudoeste 0 1008.4 -- 84
2020-09-20 06:00:00 18.1 12 Sudoeste 23 Sudoeste 0 1008.3 -- 83
2020-09-20 05:00:00 18 12 Sudoeste 24 Sudoeste 0 1008.2 -- 83
2020-09-20 04:00:00 18.2 17 Sudoeste 26 Sudoeste 0 1008.3 -- 82
2020-09-20 03:00:00 18.1 17 Sudoeste 26 Sudoeste 0 1008.3 -- 83
2020-09-20 02:00:00 18.5 16 Sudoeste 28 Sudoeste 0 1008.1 -- 84
2020-09-20 01:00:00 18.7 15 Sudoeste 27 Sudoeste 0 1008.2 -- 85
2020-09-20 00:00:00 18.3 17 Sudoeste 28 Sudoeste 0 1008.2 -- 84
2020-09-19 23:00:00 18.4 15 Oeste 30 Sudoeste 0 1008.1 -- 85
2020-09-19 22:00:00 18.6 16 Sudoeste 24 Sudoeste 0 1007.8 -- 86
2020-09-19 21:00:00 18.6 11 Oeste 21 Oeste 0 1007.3 -- 91
2020-09-19 20:00:00 19.3 10 Oeste 23 Oeste 0 1006.7 -- 90
2020-09-19 19:00:00 19.6 14 Oeste 30 Oeste 0 1006.1 -- 90
2020-09-19 18:00:00 19 17 Oeste 28 Oeste 0.2 1005.4 -- 94
2020-09-19 17:00:00 18.5 20 Oeste 33 Oeste 3.4 1005.2 -- 95
2020-09-19 16:00:00 18.1 27 Oeste 40 Oeste 1.4 1005 -- 90
2020-09-19 15:00:00 17.8 18 Oeste 42 Oeste 0.4 1004.8 -- 89
2020-09-19 14:00:00 19.2 25 Oeste 42 Oeste 0 1004.9 -- 87
2020-09-19 13:00:00 21.5 21 Oeste 37 Oeste 0 1004.5 -- 69
2020-09-19 12:00:00 23.2 12 Oeste 19 Oeste 0 1004 -- 57
2020-09-19 11:00:00 22.3 7 Sudoeste 17 Sur 0 1003.7 -- 59
2020-09-19 10:00:00 21.3 7 Sudoeste 22 Sudoeste 0 1003.6 -- 64
2020-09-19 09:00:00 19.1 14 Sudoeste 25 Sudoeste 0 1003 -- 78
2020-09-19 08:00:00 18.1 14 Sudoeste 29 Sudoeste 0 1002.3 -- 82
2020-09-19 07:00:00 18.7 12 Sudoeste 24 Sur 0 1002.4 -- 79
2020-09-19 06:00:00 19.1 18 Sur 25 Sur 0 1002 -- 66
2020-09-19 05:00:00 19.7 15 Sur 37 Sur 0 1002 -- 64
2020-09-19 04:00:00 19.1 17 Sur 32 Sur 0 1002.2 -- 66
2020-09-19 03:00:00 19.9 19 Sur 37 Sur 0 1002.2 -- 68
2020-09-19 02:00:00 20.2 19 Sudoeste 35 Sudoeste 0.4 1002.1 -- 67
2020-09-19 01:00:00 19.7 24 Sur 43 Sudoeste 1 1003.7 -- 75
2020-09-19 00:00:00 20 19 Sur 32 Sur 1.8 1003.6 -- 75
2020-09-18 23:00:00 20.7 10 Sudoeste 25 Sudoeste 0 1003.5 -- 81
2020-09-18 22:00:00 19.9 12 Oeste 22 Sudeste 0 1003 -- 83
2020-09-18 21:00:00 21.4 16 Sudeste 30 Este 0 1002.5 -- 73
2020-09-18 20:00:00 22.2 17 Este 27 Este 0 1002.6 -- 68
2020-09-18 19:00:00 22.2 19 Este 29 Este 0 1002.8 -- 70
2020-09-18 18:00:00 24.2 11 Nordeste 32 Este 0 1002.5 -- 62
2020-09-18 17:00:00 26.3 21 Este 34 Sur 0 1002.3 -- 47
2020-09-18 16:00:00 28.7 22 Sur 40 Sudeste 0 1002.7 -- 38
2020-09-18 15:00:00 25.9 11 Sur 31 Sur 0 1002.8 -- 46
2020-09-18 14:00:00 24.4 14 Sudoeste 34 Sur 0 1003.2 -- 51
2020-09-18 13:00:00 24 15 Sudoeste 45 Sur 0 1003.3 -- 52
2020-09-18 12:00:00 23.2 15 Sur 36 Sur 0 1003.1 -- 61
2020-09-18 11:00:00 21.8 22 Sur 36 Sur 0 1002.9 -- 71
2020-09-18 10:00:00 19.4 13 Sur 26 Sur 1.2 1002.5 -- 91
2020-09-18 09:00:00 19.6 13 Sur 18 Sur 0 1002.2 -- 94
2020-09-18 08:00:00 19.4 11 Sur 16 Sur 0 1002.3 -- 95
2020-09-18 07:00:00 19.2 11 Sudoeste 21 Oeste 0 1002.3 -- 95
2020-09-18 06:00:00 18.5 17 Oeste 24 Oeste 0 1001.9 -- 95
2020-09-18 05:00:00 19.1 19 Oeste 46 Oeste 0.2 1001.6 -- 93
2020-09-18 04:00:00 23.7 14 Sur 70 Sur 0 1002.2 -- 57
2020-09-18 03:00:00 27.1 30 Sur 56 Sur 0 1002.6 -- 44
2020-09-18 02:00:00 24.4 13 Sur 24 Sur 0 1001.6 -- 59
2020-09-18 01:00:00 24.2 13 Sudeste 16 Sudeste 0 1000.9 -- 60
2020-09-18 00:00:00 24.2 14 Sudeste 26 Sudeste 0 1001.7 -- 60
2020-09-17 23:00:00 23.7 18 Sudeste 26 Sudeste 0 1001.9 -- 71
2020-09-17 22:00:00 22.5 17 Sudeste 34 Este 0 1002.1 -- 80
2020-09-17 21:00:00 22.3 11 Este 30 Este 0 1002.1 -- 79
2020-09-17 20:00:00 22.5 20 Este 26 Este 0 1002.2 -- 82
2020-09-17 19:00:00 24.2 15 Este 22 Este 0 1002.9 -- 71
2020-09-17 18:00:00 23.8 6 Este 33 Este 0 1003.4 -- 85
2020-09-17 17:00:00 24 18 Este 31 Este 0 1003.5 -- 85
2020-09-17 16:00:00 24.3 18 Este 29 Este 0 1003.9 -- 80
2020-09-17 15:00:00 25.8 19 Este 29 Este 0 1004.3 -- 72
2020-09-17 14:00:00 25.6 13 Este 19 Este 0 1005.1 -- 74
2020-09-17 13:00:00 24.7 8 Sudeste 16 Este 0 1005.5 -- 79
2020-09-17 12:00:00 21.4 3 Norte 19 Este 0 1006.1 -- 93
2020-09-17 11:00:00 20.7 6 Este 17 Sudeste 0 1006.4 -- 97
2020-09-17 10:00:00 20.8 11 Este 15 Sudeste 0 1006.2 -- 99
2020-09-17 09:00:00 20.5 9 Sudeste 17 Sudeste 0 1006.9 -- 99
2020-09-17 08:00:00 20.1 12 Este 20 Sudeste 0.2 1006.8 -- 99
2020-09-17 07:00:00 20 11 Sudeste 18 Sudeste 0 1007 -- 99
2020-09-17 06:00:00 20.5 4 Oeste 12 Sudoeste 0 1007.5 -- 98
2020-09-17 05:00:00 20.5 8 Sur 13 Sur 0.2 1008 -- 99
2020-09-17 04:00:00 20.7 8 Sur 12 Sudeste 0 1008.7 -- 99
2020-09-17 03:00:00 20.8 4 Sur 9 Sur 0 1009.4 -- 99
2020-09-17 02:00:00 20.5 6 Oeste 10 Oeste 0 1009.7 -- 99
2020-09-17 01:00:00 20.5 6 Sudoeste 8 Sudoeste 0 1010.2 -- 98
2020-09-17 00:00:00 20.8 4 Sudeste 10 Sudeste 0 1010.7 -- 97
2020-09-16 23:00:00 20.9 7 Sudeste 15 Sudeste 0 1010.7 -- 97
2020-09-16 22:00:00 21.1 13 Este 17 Este 0 1010.6 -- 97
2020-09-16 21:00:00 21.1 10 Este 14 Este 0 1010.3 -- 96
2020-09-16 20:00:00 21.6 12 Este 17 Este 0 1009.9 -- 94
2020-09-16 19:00:00 22.5 9 Nordeste 19 Este 0 1009.9 -- 91
2020-09-16 18:00:00 23.1 14 Este 21 Nordeste 0 1009.6 -- 89
2020-09-16 17:00:00 23.6 16 Este 22 Este 0 1010 -- 85
2020-09-16 16:00:00 23.5 16 Nordeste 21 Nordeste 0 1010.4 -- 87
2020-09-16 15:00:00 23.4 15 Nordeste 23 Nordeste 0 1011 -- 86
2020-09-16 14:00:00 23.3 17 Nordeste 23 Nordeste 0 1011.5 -- 85
2020-09-16 13:00:00 23.6 11 Nordeste 18 Nordeste 0 1012 -- 85
2020-09-16 12:00:00 22 8 Este 13 Nordeste 0 1012.4 -- 89
2020-09-16 11:00:00 20.9 7 Este 12 Este 0 1012.6 -- 96
2020-09-16 10:00:00 20.3 5 Este 9 Este 0 1012.5 -- 98
2020-09-16 09:00:00 19.7 5 Sudeste 12 Este 0 1012.4 -- 98
2020-09-16 08:00:00 19.6 8 Sudeste 13 Sudeste 0 1012 -- 98
2020-09-16 07:00:00 19.1 10 Sudeste 14 Sudeste 0 1011.9 -- 97
2020-09-16 06:00:00 19.5 11 Sudeste 15 Este 0 1011.9 -- 97
2020-09-16 05:00:00 19.8 10 Sudeste 15 Sudeste 0 1012.3 -- 96
2020-09-16 04:00:00 20.4 9 Sudeste 12 Sudeste 0 1012.7 -- 96
2020-09-16 03:00:00 20.5 6 Sur 11 Sudeste 0 1012.9 -- 95
2020-09-16 02:00:00 20.4 2 Oeste 4 Sudeste 0 1012.9 -- 95
2020-09-16 01:00:00 19.9 2 Sur 4 Sur 0 1012.9 -- 94
2020-09-16 00:00:00 20.1 3 Sudeste 7 Sudeste 0 1012.9 -- 94
2020-09-15 23:00:00 20.3 7 Sudeste 11 Sudeste 0 1013 -- 93
2020-09-15 22:00:00 20.6 6 Sudeste 7 Sudeste 0 1012.9 -- 91
2020-09-15 21:00:00 21 6 Sudoeste 10 Sudoeste 0 1012.6 -- 93
2020-09-15 20:00:00 21.6 6 Oeste 12 Oeste 0 1012.4 -- 90
2020-09-15 19:00:00 22.5 10 Oeste 18 Oeste 0 1012.5 -- 87
2020-09-15 18:00:00 23.2 15 Oeste 21 Oeste 0 1012.5 -- 86
2020-09-15 17:00:00 23.4 16 Oeste 21 Oeste 0 1012.5 -- 85
2020-09-15 16:00:00 23.2 10 Noroeste 19 Noroeste 0 1012.6 -- 84
2020-09-15 15:00:00 22.9 14 Oeste 19 Oeste 0 1012.8 -- 84
2020-09-15 14:00:00 22.8 13 Oeste 19 Oeste 0 1012.7 -- 81
2020-09-15 13:00:00 22.1 15 Oeste 26 Oeste 0 1012.9 -- 83
2020-09-15 12:00:00 21.7 17 Oeste 28 Oeste 0 1013 -- 84
2020-09-15 11:00:00 21.5 15 Oeste 21 Oeste 0 1013.1 -- 86
2020-09-15 10:00:00 19.8 15 Oeste 22 Oeste 0 1012.7 -- 92
2020-09-15 09:00:00 18.5 9 Oeste 12 Oeste 0 1012.4 -- 94
2020-09-15 08:00:00 18.2 13 Sudeste 24 Sudeste 0 1011.8 -- 94
2020-09-15 07:00:00 18.2 12 Este 18 Este 0 1011.3 -- 94
2020-09-15 06:00:00 18.8 8 Sudeste 15 Oeste 0 1012 -- 91
2020-09-15 05:00:00 18.9 13 Oeste 17 Sudoeste 0 1012.4 -- 92
2020-09-15 04:00:00 19.5 13 Oeste 35 Sur 1.2 1012.5 -- 88
2020-09-15 03:00:00 19.7 19 Sur 28 Sur 3.2 1013.3 -- 89
2020-09-15 02:00:00 20.3 5 Nordeste 36 Sudoeste 0.2 1012.4 -- 88
2020-09-15 01:00:00 20.6 8 Sudoeste 22 Noroeste 0.2 1012.4 -- 91
2020-09-15 00:00:00 19.7 14 Oeste 41 Oeste 0 1013.5 -- 91
2020-09-14 23:00:00 20.1 23 Oeste 37 Oeste 0 1014.2 -- 88
2020-09-14 22:00:00 20.2 11 Oeste 14 Oeste 0 1012 -- 79
2020-09-14 21:00:00 21 7 Oeste 9 Oeste 0 1011.2 -- 73
2020-09-14 20:00:00 22.3 3 Noroeste 10 Norte 0 1010.9 -- 74
2020-09-14 19:00:00 23 5 Oeste 21 Oeste 0 1010.9 -- 69
2020-09-14 18:00:00 22.1 14 Oeste 23 Oeste 0 1011.4 -- 70
2020-09-14 17:00:00 23.4 8 Oeste 29 Oeste 0 1011.2 -- 58
2020-09-14 16:00:00 25.1 21 Oeste 34 Oeste 0 1012 -- 54
2020-09-14 15:00:00 25.4 23 Oeste 32 Oeste 0 1012 -- 52
2020-09-14 14:00:00 24.4 23 Oeste 32 Oeste 0 1011.8 -- 56
2020-09-14 13:00:00 24.4 23 Oeste 33 Oeste 0 1011.5 -- 58
2020-09-14 12:00:00 24.1 19 Oeste 27 Oeste 0 1011.4 -- 60
2020-09-14 11:00:00 23.8 15 Oeste 28 Oeste 0 1011.2 -- 63
2020-09-14 10:00:00 23.3 17 Oeste 25 Noroeste 0 1010.7 -- 64
2020-09-14 09:00:00 23.6 16 Oeste 40 Sudoeste 0 1010.1 -- 59
2020-09-14 08:00:00 28.6 25 Sudoeste 52 Sur 0 1009 0.3 31
2020-09-14 07:00:00 29.1 27 Sur 48 Sur 0 1008.4 -- 30
2020-09-14 06:00:00 29 26 Sur 41 Sur 0 1008.6 -- 30
2020-09-14 05:00:00 29.2 21 Sur 42 Sur 0 1008.7 -- 29
2020-09-14 04:00:00 27.4 26 Sur 38 Sur 0 1008.8 -- 37
2020-09-14 03:00:00 22.6 17 Sudeste 21 Sudeste 0 1009.2 -- 67
2020-09-14 02:00:00 22 11 Sur 14 Sur 0 1009.6 -- 74
2020-09-14 01:00:00 22.3 4 Sudoeste 15 Sur 0 1010.1 -- 75
2020-09-14 00:00:00 21.9 10 Sudeste 13 Sudeste 0 1010.3 -- 76
2020-09-13 23:00:00 21.2 6 Oeste 10 Este 0 1010.8 -- 86
2020-09-13 22:00:00 21.3 6 Este 22 Este 0 1010.8 -- 87
2020-09-13 21:00:00 21.7 15 Este 26 Este 0 1010.3 -- 85
2020-09-13 20:00:00 22.5 17 Este 26 Este 0 1010.1 -- 77
2020-09-13 19:00:00 23.8 21 Este 27 Este 0 1010 -- 69
2020-09-13 18:00:00 24.9 20 Este 36 Este 0 1010.1 -- 66
2020-09-13 17:00:00 23.7 24 Este 35 Este 0 1010.3 -- 75
2020-09-13 16:00:00 23.2 21 Este 35 Este 0 1010.7 -- 82
2020-09-13 15:00:00 23.3 23 Este 33 Este 0 1011.2 -- 81
2020-09-13 14:00:00 23.9 22 Este 29 Este 0 1011.5 -- 72
2020-09-13 13:00:00 23.6 20 Este 29 Este 0 1012.1 -- 69
2020-09-13 12:00:00 23.2 12 Este 19 Este 0 1012.7 -- 70
2020-09-13 11:00:00 22.2 10 Este 18 Sudeste 0 1012.7 -- 70
2020-09-13 10:00:00 21 14 Este 21 Sudeste 0 1012.6 -- 73
2020-09-13 09:00:00 18.9 15 Sudeste 28 Sudeste 0 1012.6 -- 81
2020-09-13 08:00:00 17.9 15 Este 23 Sudeste 0 1012.5 -- 84
2020-09-13 07:00:00 17.9 17 Sudeste 24 Sudeste 0 1012.6 -- 85
2020-09-13 06:00:00 18.2 17 Sudeste 30 Sudeste 0 1012.8 -- 87
2020-09-13 05:00:00 18 18 Este 26 Sudeste 0 1012.9 -- 89
2020-09-13 04:00:00 17.9 8 Sudeste 28 Este 0 1013.3 -- 90
2020-09-13 03:00:00 19 22 Este 32 Este 0 1013.5 -- 92
2020-09-13 02:00:00 19.3 22 Este 30 Este 0 1014.1 -- 91
2020-09-13 01:00:00 19.2 14 Este 25 Este 0 1014.4 -- 90
2020-09-13 00:00:00 19.4 19 Este 27 Este 0 1014.4 -- 92
2020-09-12 23:00:00 19.5 18 Este 30 Este 0 1014.4 -- 93
2020-09-12 22:00:00 19.1 13 Este 19 Sudeste 0 1014.1 -- 89
2020-09-12 21:00:00 19.7 14 Este 37 Este 0 1013.3 -- 87
2020-09-12 20:00:00 20.6 20 Este 34 Este 0 1013.2 -- 85
2020-09-12 19:00:00 21.4 24 Este 39 Este 0 1012.8 -- 83
2020-09-12 18:00:00 21.6 30 Este 40 Este 0 1012.9 -- 83
2020-09-12 17:00:00 21.8 28 Este 37 Este 0 1013 -- 81
2020-09-12 16:00:00 22.1 27 Este 41 Este 0 1013.1 -- 82
2020-09-12 15:00:00 22.4 25 Este 37 Este 0 1013.2 -- 81
2020-09-12 14:00:00 22.5 24 Este 35 Nordeste 0 1013.4 -- 81
2020-09-12 13:00:00 22.4 21 Este 28 Este 0 1013.7 -- 82
2020-09-12 12:00:00 22 19 Este 28 Este 0 1013.5 -- 83
2020-09-12 11:00:00 21.3 10 Este 14 Este 0 1013.3 -- 84
2020-09-12 10:00:00 20.2 6 Sudeste 11 Sudeste 0 1012.9 -- 88
2020-09-12 09:00:00 18.5 6 Sudeste 10 Sur 0 1012.7 -- 95
2020-09-12 08:00:00 17.3 3 Este 14 Sur 0 1012 -- 95
2020-09-12 07:00:00 17.3 8 Sudeste 18 Sudeste 0 1011.5 -- 94
2020-09-12 06:00:00 17.6 13 Sur 17 Sudeste 0 1011.2 -- 95
2020-09-12 05:00:00 17.8 12 Sur 16 Sudeste 0 1011.2 -- 94
2020-09-12 04:00:00 17.9 11 Sudeste 12 Sudeste 0 1011.2 -- 95
2020-09-12 03:00:00 18.2 10 Sudeste 15 Sudeste 0 1010.9 -- 96
2020-09-12 02:00:00 18.7 7 Sudeste 15 Sudeste 0 1011 -- 96
2020-09-12 01:00:00 18.9 10 Sudeste 21 Sudeste 0 1010.8 -- 96
2020-09-12 00:00:00 19.3 15 Este 22 Sudeste 0 1010.7 -- 95
2020-09-11 23:00:00 19.7 17 Este 26 Este 0 1010.5 -- 95
2020-09-11 22:00:00 19.7 17 Este 28 Este 0 1010.2 -- 94
2020-09-11 21:00:00 19.9 21 Este 29 Este 0 1009.7 -- 92
2020-09-11 20:00:00 20.6 24 Este 32 Este 0 1009.3 -- 87
2020-09-11 19:00:00 21.3 23 Este 36 Este 0 1009.3 -- 85
2020-09-11 18:00:00 21.7 28 Este 39 Este 0 1009.2 -- 85
2020-09-11 17:00:00 22.1 31 Este 40 Este 0 1009.4 -- 83
2020-09-11 16:00:00 22.5 24 Este 35 Este 0 1009.7 -- 81
2020-09-11 15:00:00 22.6 23 Este 36 Este 0 1009.8 -- 81
2020-09-11 14:00:00 22.6 25 Este 34 Este 0 1009.9 -- 81
2020-09-11 13:00:00 22.6 21 Este 32 Nordeste 0 1010.2 -- 80
2020-09-11 12:00:00 22.1 21 Este 29 Este 0 1010.3 -- 80
2020-09-11 11:00:00 21.5 16 Este 21 Este 0 1010.5 -- 83
2020-09-11 10:00:00 20.2 10 Este 16 Sudeste 0 1010.4 -- 87
2020-09-11 09:00:00 18.2 13 Sudeste 17 Sudeste 0 1010.5 -- 95
2020-09-11 08:00:00 17 12 Sur 16 Sur 0 1010.3 -- 97
2020-09-11 07:00:00 17.5 12 Sur 15 Sur 0 1010.4 -- 97
2020-09-11 06:00:00 17.8 9 Sur 12 Sur 0 1010.6 -- 96
2020-09-11 05:00:00 18 10 Sur 14 Sur 0 1011 -- 96
2020-09-11 04:00:00 18.1 12 Sur 14 Sur 0 1011.4 -- 96
2020-09-11 03:00:00 18.3 9 Sur 11 Sur 0 1012 -- 95
2020-09-11 02:00:00 18.6 7 Sur 9 Sur 0 1012.3 -- 95
2020-09-11 01:00:00 18.9 7 Sur 8 Sur 0 1012.7 -- 94
2020-09-11 00:00:00 19.3 3 Sur 4 Sudoeste 0 1012.9 -- 93
2020-09-10 23:00:00 19.5 3 Oeste 4 Sudoeste 0 1013 -- 91
2020-09-10 22:00:00 19.8 2 Sudoeste 3 Sudoeste 0 1012.8 -- 90
2020-09-10 21:00:00 20.2 0 Calma 8 Noroeste 0 1012.5 -- 88
2020-09-10 20:00:00 20.9 4 Noroeste 9 Noroeste 0 1012.6 -- 86
2020-09-10 19:00:00 21.4 9 Noroeste 15 Norte 0 1012.9 -- 84
2020-09-10 18:00:00 21.8 9 Noroeste 14 Noroeste 0 1013.2 -- 83
2020-09-10 17:00:00 22.2 8 Noroeste 15 Noroeste 0 1013.5 -- 82
2020-09-10 16:00:00 22.1 10 Noroeste 16 Noroeste 0 1014 -- 83
2020-09-10 15:00:00 21.6 10 Noroeste 16 Noroeste 0 1014.3 -- 82
2020-09-10 14:00:00 21.9 10 Noroeste 17 Oeste 0 1014.9 -- 80
2020-09-10 13:00:00 21.9 12 Oeste 17 Noroeste 0 1015.2 -- 80
2020-09-10 12:00:00 21.7 10 Oeste 13 Oeste 0 1015.4 -- 82
2020-09-10 11:00:00 20.9 9 Oeste 13 Oeste 0 1015.7 -- 82
2020-09-10 10:00:00 19.6 9 Sudoeste 13 Oeste 0 1015.3 -- 82
2020-09-10 09:00:00 18.4 9 Sudoeste 14 Sur 0 1014.9 -- 88
2020-09-10 08:00:00 17.6 10 Sudoeste 13 Sudoeste 0 1014.5 -- 93
2020-09-10 07:00:00 18 10 Sudoeste 14 Sudoeste 0 1014.5 -- 93
2020-09-10 06:00:00 17.9 11 Sudoeste 15 Sudoeste 0 1014.9 -- 95
2020-09-10 05:00:00 18.5 9 Sudoeste 12 Sudoeste 0 1015.2 -- 95
2020-09-10 04:00:00 18.8 9 Sudoeste 12 Sudoeste 0 1015.6 -- 95
2020-09-10 03:00:00 19 8 Sudoeste 12 Sur 0 1016.1 -- 96
2020-09-10 02:00:00 19.1 8 Sudoeste 12 Sudoeste 0 1016.4 -- 95
2020-09-10 01:00:00 19.5 7 Sudoeste 10 Sudoeste 0 1016.7 -- 96
2020-09-10 00:00:00 19.6 8 Oeste 10 Oeste 0 1016.9 -- 96
2020-09-09 23:00:00 19.7 6 Oeste 10 Oeste 0 1016.9 -- 95
2020-09-09 22:00:00 19.8 8 Oeste 9 Oeste 0 1016.4 -- 94
2020-09-09 21:00:00 19.8 10 Oeste 15 Oeste 0 1015.7 -- 93
2020-09-09 20:00:00 21.2 11 Oeste 15 Oeste 0 1015.5 -- 87
2020-09-09 19:00:00 22.6 9 Oeste 12 Noroeste 0 1015.3 -- 81
2020-09-09 18:00:00 23 3 Norte 17 Noroeste 0 1015.4 -- 78
2020-09-09 17:00:00 22.7 11 Noroeste 17 Noroeste 0 1015.7 -- 82
2020-09-09 16:00:00 22.3 8 Noroeste 13 Noroeste 0 1015.8 -- 80
2020-09-09 15:00:00 21.9 8 Noroeste 17 Noroeste 0 1016.1 -- 81
2020-09-09 14:00:00 21.1 9 Noroeste 15 Noroeste 0 1016.1 -- 77
2020-09-09 13:00:00 20.7 8 Noroeste 12 Noroeste 0 1016.2 -- 71
2020-09-09 12:00:00 20.5 8 Noroeste 14 Noroeste 0 1016.4 -- 72
2020-09-09 11:00:00 19.4 4 Norte 9 Sudoeste 0 1016.4 -- 72
2020-09-09 10:00:00 18.7 6 Sudoeste 11 Sudoeste 0 1015.9 -- 71
2020-09-09 09:00:00 16.9 9 Sudoeste 14 Sudoeste 0 1015.8 -- 77
2020-09-09 08:00:00 16 5 Oeste 6 Oeste 0 1015.3 -- 84
2020-09-09 07:00:00 16.5 4 Nordeste 6 Sudeste 0 1015 -- 84
2020-09-09 06:00:00 16.8 5 Sudeste 10 Sur 0 1014.8 -- 75
2020-09-09 05:00:00 16.6 10 Sur 15 Sudeste 0 1015 -- 80
2020-09-09 04:00:00 16.8 12 Sudeste 25 Sudeste 0 1015.1 -- 77
2020-09-09 03:00:00 17.7 17 Sudeste 23 Sudeste 0 1015.2 -- 75
2020-09-09 02:00:00 18.1 17 Sudeste 27 Sudeste 0 1015.8 -- 73
2020-09-09 01:00:00 18.9 18 Sudeste 28 Sudeste 0 1016.2 -- 69
2020-09-09 00:00:00 18.8 17 Este 26 Sudeste 0 1016.6 -- 76
2020-09-08 23:00:00 19.1 17 Este 29 Este 0 1016.6 -- 72
2020-09-08 22:00:00 19.5 22 Este 36 Este 0 1016.5 -- 69
2020-09-08 21:00:00 19.9 28 Este 44 Este 0 1016.1 -- 64
2020-09-08 20:00:00 20.4 26 Este 41 Este 0 1016.1 -- 68
2020-09-08 19:00:00 20.9 32 Este 40 Este 0 1015.9 -- 68
2020-09-08 18:00:00 21.3 32 Este 41 Este 0 1016.2 -- 68
2020-09-08 17:00:00 21.7 26 Este 37 Este 0 1016.6 -- 66
2020-09-08 16:00:00 21.8 28 Este 37 Este 0 1017.2 -- 68
2020-09-08 15:00:00 21.8 25 Este 35 Este 0 1018 -- 71
2020-09-08 14:00:00 21.6 25 Este 33 Este 0 1018.5 -- 69
2020-09-08 13:00:00 21.3 24 Este 32 Este 0 1018.8 -- 68
2020-09-08 12:00:00 20.8 7 Nordeste 12 Este 0 1019.4 -- 74
2020-09-08 11:00:00 19.7 6 Nordeste 10 Nordeste 0 1019.5 -- 72
2020-09-08 10:00:00 18.5 3 Norte 4 Este 0 1019.4 -- 76
2020-09-08 09:00:00 17.3 3 Nordeste 15 Sur 0 1019.2 -- 77
2020-09-08 08:00:00 15.2 12 Sur 17 Sur 0 1018.9 -- 83
2020-09-08 07:00:00 15 4 Sudeste 16 Sur 0 1018.5 -- 81
2020-09-08 06:00:00 14.9 6 Sur 13 Sur 0 1018.6 -- 82
2020-09-08 05:00:00 15.2 3 Sur 15 Sur 0 1018.8 -- 81
2020-09-08 04:00:00 15.6 10 Sur 13 Sur 0 1019.1 -- 79
2020-09-08 03:00:00 16 13 Sur 14 Sur 0 1019.4 -- 79
2020-09-08 02:00:00 16.3 12 Sur 13 Sur 0 1019.7 -- 79
2020-09-08 01:00:00 16.3 10 Sur 12 Sudeste 0 1020.1 -- 78
2020-09-08 00:00:00 16.5 9 Sudeste 17 Sudeste 0 1020.2 -- 77
2020-09-07 23:00:00 16.9 11 Sudeste 18 Sudeste 0 1020.3 -- 78
2020-09-07 22:00:00 17.7 8 Sudeste 21 Este 0 1020 -- 72
2020-09-07 21:00:00 18.6 15 Este 23 Este 0 1019.4 -- 66
2020-09-07 20:00:00 19.5 17 Este 26 Este 0 1019.1 -- 63
2020-09-07 19:00:00 20.2 18 Este 26 Este 0 1019 -- 61
2020-09-07 18:00:00 20.9 20 Este 27 Este 0 1018.8 -- 62
2020-09-07 17:00:00 21.1 21 Este 28 Este 0 1018.6 -- 60
2020-09-07 16:00:00 21.6 19 Este 25 Este 0 1018.7 -- 62
2020-09-07 15:00:00 22.1 15 Nordeste 22 Este 0 1019.1 -- 62
2020-09-07 14:00:00 22.2 15 Este 25 Nordeste 0 1018.8 -- 62
2020-09-07 13:00:00 21.4 18 Nordeste 24 Nordeste 0 1018.8 -- 63
2020-09-07 12:00:00 19.7 6 Noroeste 10 Noroeste 0 1018.9 -- 71
2020-09-07 11:00:00 19.3 3 Noroeste 10 Sudoeste 0 1018.8 -- 72
2020-09-07 10:00:00 18.2 5 Sudoeste 9 Sudoeste 0 1018.2 -- 76
2020-09-07 09:00:00 17.4 5 Sur 16 Sur 0 1017.7 -- 80
2020-09-07 08:00:00 18.1 13 Este 25 Nordeste 0 1017.2 -- 72
2020-09-07 07:00:00 17.9 24 Nordeste 38 Nordeste 0 1016.8 -- 72
2020-09-07 06:00:00 18.5 17 Nordeste 23 Norte 0 1016.6 -- 70
2020-09-07 05:00:00 18.2 12 Nordeste 19 Nordeste 0 1016.6 -- 70
2020-09-07 04:00:00 18.3 12 Nordeste 22 Nordeste 0 1016.8 -- 65
2020-09-07 03:00:00 18.6 17 Nordeste 28 Nordeste 0 1017.1 -- 65
2020-09-07 02:00:00 18.5 21 Nordeste 28 Nordeste 0 1017.2 -- 70
2020-09-07 01:00:00 18.4 20 Nordeste 28 Nordeste 0 1017.3 -- 69
2020-09-07 00:00:00 18.5 21 Nordeste 30 Nordeste 0 1017.2 -- 71
2020-09-06 23:00:00 18.5 22 Nordeste 33 Nordeste 0 1017.2 -- 75
2020-09-06 22:00:00 18.6 25 Nordeste 35 Nordeste 0 1016.9 -- 75
2020-09-06 21:00:00 18.7 14 Nordeste 21 Nordeste 0 1016.3 -- 73
2020-09-06 20:00:00 19.1 17 Nordeste 27 Nordeste 0 1016.3 -- 71
2020-09-06 19:00:00 19.4 14 Nordeste 23 Nordeste 0 1016.4 -- 72
2020-09-06 18:00:00 19.9 9 Noroeste 20 Noroeste 0 1016.2 -- 67
2020-09-06 17:00:00 20.7 12 Noroeste 19 Noroeste 0 1016.2 -- 66
2020-09-06 16:00:00 20.8 13 Noroeste 19 Noroeste 0 1016.5 -- 65
2020-09-06 15:00:00 21 12 Oeste 21 Oeste 0 1016.7 -- 64
2020-09-06 14:00:00 20.1 10 Noroeste 18 Oeste 0 1016.8 -- 65
2020-09-06 13:00:00 19.8 7 Noroeste 14 Noroeste 0 1017.2 -- 66
2020-09-06 12:00:00 19.3 7 Oeste 15 Norte 0 1017.2 -- 68
2020-09-06 11:00:00 18.4 14 Norte 23 Noroeste 0 1017.3 -- 69
2020-09-06 10:00:00 18.4 7 Norte 18 Norte 0 1016.9 -- 67
2020-09-06 09:00:00 17.8 6 Nordeste 22 Nordeste 0 1016.8 -- 74
2020-09-06 08:00:00 18 10 Norte 24 Norte 0 1016.6 -- 73
2020-09-06 07:00:00 18.2 9 Nordeste 19 Nordeste 0 1016.2 -- 70
2020-09-06 06:00:00 18.2 13 Nordeste 23 Norte 0 1016.5 -- 70
2020-09-06 05:00:00 18.4 18 Nordeste 27 Nordeste 0 1016.7 -- 72
2020-09-06 04:00:00 18.5 19 Nordeste 32 Nordeste 0 1017 -- 75
2020-09-06 03:00:00 18.8 21 Nordeste 27 Nordeste 0 1017.3 -- 75
2020-09-06 02:00:00 18.9 22 Nordeste 29 Nordeste 0 1017.5 -- 77
2020-09-06 01:00:00 19 24 Nordeste 31 Nordeste 0 1017.6 -- 78
2020-09-06 00:00:00 19.1 22 Nordeste 32 Nordeste 0 1017.7 -- 79
2020-09-05 23:00:00 18.4 20 Nordeste 35 Nordeste 0 1017.8 -- 86
2020-09-05 22:00:00 18.6 30 Nordeste 37 Nordeste 0 1017.6 -- 90
2020-09-05 21:00:00 19.6 17 Este 26 Este 0 1017.1 -- 79
2020-09-05 20:00:00 19.8 21 Nordeste 31 Nordeste 0 1016.9 -- 79
2020-09-05 19:00:00 20 23 Nordeste 30 Nordeste 0 1016.8 -- 76
2020-09-05 18:00:00 20.5 22 Nordeste 27 Nordeste 0 1017 -- 80
2020-09-05 17:00:00 20.3 22 Nordeste 28 Nordeste 0 1017.4 -- 84
2020-09-05 16:00:00 21.8 14 Norte 18 Nordeste 0 1017.7 -- 77
2020-09-05 15:00:00 21.2 14 Norte 21 Norte 0 1018.1 -- 79
2020-09-05 14:00:00 21.7 14 Norte 18 Norte 0 1018 -- 74
2020-09-05 13:00:00 22.3 5 Nordeste 18 Norte 0 1018.2 -- 69
2020-09-05 12:00:00 20.9 14 Norte 25 Norte 0 1018.2 -- 77
2020-09-05 11:00:00 21.1 14 Norte 20 Norte 0 1017.8 -- 78
2020-09-05 10:00:00 20.8 13 Norte 18 Norte 0 1017.5 -- 81
2020-09-05 09:00:00 20.5 14 Norte 23 Norte 0 1017.2 -- 82
2020-09-05 08:00:00 20.2 12 Norte 22 Norte 0 1016.9 -- 85
2020-09-05 07:00:00 20.2 12 Norte 20 Noroeste 0 1016.5 -- 88
2020-09-05 06:00:00 20.3 11 Noroeste 26 Noroeste 0 1016.2 -- 89
2020-09-05 05:00:00 20.3 15 Noroeste 25 Oeste 0 1016.1 -- 93
2020-09-05 04:00:00 20.6 15 Oeste 28 Oeste 0 1015.9 -- 93
2020-09-05 03:00:00 20.5 19 Oeste 30 Oeste 0 1015.8 -- 92
2020-09-05 02:00:00 20.6 21 Oeste 30 Oeste 0 1015.8 -- 93
2020-09-05 01:00:00 20.7 15 Oeste 27 Oeste 0 1015.6 -- 95
2020-09-05 00:00:00 21 17 Oeste 27 Oeste 0 1015.2 -- 95
2020-09-04 23:00:00 21.1 15 Oeste 22 Oeste 0 1014.7 -- 96
2020-09-04 22:00:00 20.8 13 Oeste 16 Oeste 0 1014.1 -- 93
2020-09-04 21:00:00 21.4 9 Oeste 11 Oeste 0 1013.1 -- 90
2020-09-04 20:00:00 22.7 5 Noroeste 7 Noroeste 0 1012.6 -- 85
2020-09-04 19:00:00 23.4 4 Nordeste 8 Norte 0 1012.5 -- 82
2020-09-04 18:00:00 23.4 7 Norte 9 Norte 0 1012.7 -- 84
2020-09-04 17:00:00 23.4 6 Norte 9 Nordeste 0 1012.5 -- 84
2020-09-04 16:00:00 23.9 6 Nordeste 8 Nordeste 0 1012.8 -- 77
2020-09-04 15:00:00 23.5 7 Nordeste 11 Nordeste 0 1013 -- 73
2020-09-04 14:00:00 22.6 9 Nordeste 14 Este 0 1013.4 -- 77
2020-09-04 13:00:00 22.6 7 Nordeste 10 Nordeste 0 1013.7 -- 78
2020-09-04 12:00:00 21.2 4 Nordeste 7 Nordeste 0 1014.2 -- 82
2020-09-04 11:00:00 20.7 4 Norte 5 Norte 0 1014.3 -- 84
2020-09-04 10:00:00 19.7 4 Norte 8 Oeste 0 1014.1 -- 86
2020-09-04 09:00:00 19 6 Sudoeste 9 Oeste 0 1013.9 -- 86
2020-09-04 08:00:00 18 4 Oeste 11 Sur 0 1013.7 -- 85
2020-09-04 07:00:00 17.2 11 Sudeste 13 Sur 0 1013.4 -- 93
2020-09-04 06:00:00 17.2 12 Sur 14 Sur 0 1013.5 -- 95
2020-09-04 05:00:00 18.2 8 Sudeste 9 Sudeste 0 1013.9 -- 94
2020-09-04 04:00:00 18.8 5 Sudeste 10 Sur 0 1014.4 -- 94
2020-09-04 03:00:00 18.7 10 Sudeste 14 Sudeste 0 1014.7 -- 95
2020-09-04 02:00:00 19.1 11 Sudeste 17 Este 0 1015.1 -- 93
2020-09-04 01:00:00 19.3 11 Sudeste 20 Sudeste 0 1015.2 -- 92
2020-09-04 00:00:00 19.5 12 Este 18 Este 0 1015.2 -- 91
2020-09-03 23:00:00 19.6 10 Este 19 Sudeste 0 1015.1 -- 87
2020-09-03 22:00:00 19.6 12 Sudeste 21 Este 0 1014.6 -- 87
2020-09-03 21:00:00 20.4 13 Este 22 Este 0 1014.2 -- 85
2020-09-03 20:00:00 21.4 18 Este 27 Este 0 1013.9 -- 81
2020-09-03 19:00:00 22 18 Este 28 Este 0 1013.8 -- 76
2020-09-03 18:00:00 22.5 19 Este 31 Este 0 1013.7 -- 73
2020-09-03 17:00:00 22.8 22 Este 35 Este 0 1013.9 -- 71
2020-09-03 16:00:00 22.8 24 Este 36 Este 0 1013.9 -- 69
2020-09-03 15:00:00 22.9 26 Este 38 Este 0 1014.3 -- 67
2020-09-03 14:00:00 22.7 26 Este 37 Este 0 1014.3 -- 64
2020-09-03 13:00:00 22.3 30 Este 39 Este 0 1014.2 -- 60
2020-09-03 12:00:00 22.4 21 Este 27 Este 0 1014.2 -- 67
2020-09-03 11:00:00 21.2 13 Este 22 Sudeste 0 1014.1 -- 56
2020-09-03 10:00:00 20.1 14 Sudeste 23 Sudeste 0 1013.8 -- 57
2020-09-03 09:00:00 17.5 15 Sudeste 19 Sudeste 0 1013.7 -- 71
2020-09-03 08:00:00 15.1 13 Sudeste 17 Sudeste 0 1013.7 -- 87
2020-09-03 07:00:00 16.1 15 Sudeste 26 Sudeste 0 1013.5 -- 72
2020-09-03 06:00:00 16.4 17 Sudeste 26 Sudeste 0 1013.5 -- 72
2020-09-03 05:00:00 16.8 18 Sudeste 26 Sudeste 0 1013.5 -- 70
2020-09-03 04:00:00 17 17 Sudeste 26 Este 0 1013.7 -- 68
2020-09-03 03:00:00 16.7 13 Sudeste 19 Este 0 1013.8 -- 70
2020-09-03 02:00:00 17 14 Sudeste 25 Sudeste 0 1014 -- 71
2020-09-03 01:00:00 17.9 16 Sudeste 26 Este 0 1014.3 -- 64
2020-09-03 00:00:00 19.1 18 Este 27 Este 0 1014.3 -- 62
2020-09-02 23:00:00 19.1 15 Este 25 Este 0 1014.1 -- 65
2020-09-02 22:00:00 19.4 15 Este 28 Este 0 1013.9 -- 64
2020-09-02 21:00:00 20.2 20 Este 30 Este 0 1013.4 -- 61
2020-09-02 20:00:00 21.4 22 Este 33 Este 0 1013.1 -- 57
2020-09-02 19:00:00 21.9 24 Este 33 Este 0 1012.8 -- 60
2020-09-02 18:00:00 22.4 22 Este 32 Este 0 1012.6 -- 63
2020-09-02 17:00:00 22.6 22 Este 30 Este 0 1012.6 -- 64
2020-09-02 16:00:00 22.5 22 Nordeste 28 Nordeste 0 1012.9 -- 68
2020-09-02 15:00:00 22.6 18 Nordeste 24 Nordeste 0 1013 -- 70
2020-09-02 14:00:00 21.7 14 Nordeste 19 Nordeste 0 1012.8 -- 76
2020-09-02 13:00:00 21.2 10 Norte 13 Norte 0 1012.9 -- 73
2020-09-02 12:00:00 21 8 Norte 12 Norte 0 1013.3 -- 72
2020-09-02 11:00:00 20.6 8 Norte 11 Norte 0 1013 -- 69
2020-09-02 10:00:00 20.9 7 Sur 13 Sudoeste 0 1012.6 -- 72
2020-09-02 09:00:00 18.7 7 Sudoeste 15 Sudoeste 0 1012.4 -- 84
2020-09-02 08:00:00 17.6 11 Sur 15 Sur 0 1012.3 -- 86
2020-09-02 07:00:00 17.8 9 Sudoeste 14 Sudoeste 0 1011.9 -- 83
2020-09-02 06:00:00 17.5 9 Sudoeste 14 Sudoeste 0 1011.6 -- 85
2020-09-02 05:00:00 17.4 11 Sudoeste 16 Sudoeste 0 1011.4 -- 86
2020-09-02 04:00:00 17.6 11 Sudoeste 15 Sudoeste 0 1011.5 -- 87
2020-09-02 03:00:00 18.2 6 Sudoeste 10 Sudoeste 0 1011.5 -- 86
2020-09-02 02:00:00 18.5 7 Sudoeste 10 Sudoeste 0 1011.8 -- 86
2020-09-02 01:00:00 19.4 5 Este 19 Noroeste 0 1011.7 -- 81
2020-09-02 00:00:00 19.1 7 Noroeste 16 Noroeste 0.2 1011.7 -- 80
2020-09-01 23:00:00 19 4 Oeste 9 Noroeste 0 1011.5 -- 74
2020-09-01 22:00:00 19.5 7 Noroeste 13 Norte 0 1011.2 -- 73
2020-09-01 21:00:00 19.9 9 Noroeste 14 Norte 0 1010.8 -- 74
2020-09-01 20:00:00 20.6 10 Norte 18 Norte 0 1010.4 -- 71
2020-09-01 19:00:00 21.1 13 Nordeste 23 Norte 0 1010 -- 68
2020-09-01 18:00:00 21.6 15 Norte 20 Norte 0 1009.7 -- 70
2020-09-01 17:00:00 21.9 11 Norte 16 Norte 0 1009.5 -- 71
2020-09-01 16:00:00 21.8 11 Norte 16 Norte 0 1009.6 -- 74
2020-09-01 15:00:00 21.8 9 Norte 14 Norte 0 1009.9 -- 69
2020-09-01 14:00:00 21 7 Noroeste 17 Oeste 0 1009.7 -- 73
2020-09-01 13:00:00 21 10 Noroeste 15 Noroeste 0 1010 -- 74
2020-09-01 12:00:00 20.3 9 Noroeste 14 Noroeste 0 1010 -- 74
2020-09-01 11:00:00 20.4 6 Noroeste 12 Sudoeste 0 1010 -- 70
2020-09-01 10:00:00 19.9 6 Sudoeste 11 Sur 0 1009.6 -- 61
2020-09-01 09:00:00 18.2 7 Sudoeste 11 Sudoeste 0 1009.3 -- 60
2020-09-01 08:00:00 16.7 0 Calma 13 Sur 0 1009.1 -- 69
2020-09-01 07:00:00 15.9 10 Sur 13 Sur 0 1008.7 -- 73
2020-09-01 06:00:00 17.2 9 Sudoeste 12 Sudoeste 0 1008.8 -- 67
2020-09-01 05:00:00 17.9 9 Sudoeste 12 Sudoeste 0 1009.2 -- 71
2020-09-01 04:00:00 17.6 10 Sudoeste 14 Sudoeste 0 1009.5 -- 72
2020-09-01 03:00:00 17.9 8 Sudoeste 12 Sudoeste 0 1009.9 -- 70
2020-09-01 02:00:00 18.2 3 Sudoeste 6 Sur 0 1010.1 -- 78
2020-09-01 01:00:00 18.4 3 Sudoeste 6 Sudoeste 0 1010.4 -- 76
2020-09-01 00:00:00 18 3 Oeste 9 Sur 0 1010.4 -- 77
2020-08-31 23:00:00 17.9 10 Sudeste 19 Sudeste 0 1010.4 -- 78
2020-08-31 22:00:00 18.4 11 Sudeste 18 Sudeste 0 1010.6 -- 76
2020-08-31 21:00:00 18.8 13 Este 22 Este 0 1010.3 -- 74
2020-08-31 20:00:00 19.5 15 Este 30 Este 0 1010.5 -- 70
2020-08-31 19:00:00 20 23 Este 36 Este 0 1010.9 -- 67
2020-08-31 18:00:00 20.3 30 Este 38 Este 0 1011 -- 68
2020-08-31 17:00:00 20.8 28 Este 40 Este 0 1011.4 -- 67
2020-08-31 16:00:00 21.2 27 Este 38 Este 0 1011.8 -- 62
2020-08-31 15:00:00 21.6 26 Este 35 Este 0 1012.3 -- 58
2020-08-31 14:00:00 21.4 21 Este 31 Este 0 1012.8 -- 58
2020-08-31 13:00:00 21.8 18 Este 27 Este 0 1012.8 -- 56
2020-08-31 12:00:00 20.7 11 Este 17 Este 0 1012.9 -- 54
2020-08-31 11:00:00 19.7 9 Sudeste 19 Sudeste 0 1013.1 -- 63
2020-08-31 10:00:00 17.7 13 Sudeste 18 Sudeste 0 1013.1 -- 63
2020-08-31 09:00:00 15.8 13 Sudeste 17 Sudeste 0 1013.3 -- 73
2020-08-31 08:00:00 13.2 14 Sur 18 Sur 0 1013.3 -- 82
2020-08-31 07:00:00 13 16 Sur 19 Sur 0 1013.1 -- 86
2020-08-31 06:00:00 13.2 15 Sur 18 Sur 0 1013.4 -- 83
2020-08-31 05:00:00 13.8 14 Sur 19 Sur 0 1013.9 -- 81
2020-08-31 04:00:00 14.5 15 Sur 21 Sudoeste 0 1014.4 -- 78
2020-08-31 03:00:00 14.6 15 Sudoeste 19 Sudoeste 0 1014.7 -- 77
2020-08-31 02:00:00 15.1 14 Sur 20 Sudoeste 0 1015 -- 77
2020-08-31 01:00:00 15.6 14 Sur 20 Sur 0 1015.1 -- 79
2020-08-31 00:00:00 15.9 14 Sur 19 Sur 0 1014.9 -- 77
2020-08-30 23:00:00 16.2 13 Sur 17 Sur 0 1014.8 -- 76
2020-08-30 22:00:00 16.5 9 Sudoeste 13 Sudoeste 0 1014.3 -- 76
2020-08-30 21:00:00 17.3 9 Sudoeste 13 Sudoeste 0 1013.8 -- 70
2020-08-30 20:00:00 18.2 8 Oeste 19 Oeste 0 1013.7 -- 68
2020-08-30 19:00:00 17.8 13 Oeste 19 Oeste 0 1013.5 -- 70
2020-08-30 18:00:00 18.3 13 Oeste 24 Oeste 0 1013.3 -- 71
2020-08-30 17:00:00 19.7 8 Noroeste 15 Noroeste 0 1013 -- 58
2020-08-30 16:00:00 18.6 10 Noroeste 28 Norte 0 1013 -- 63
2020-08-30 15:00:00 18.7 15 Norte 26 Norte 0 1013.1 -- 65
2020-08-30 14:00:00 16.9 8 Norte 32 Norte 0.2 1012.6 -- 76
2020-08-30 13:00:00 16.9 21 Norte 34 Norte 0.2 1012.2 -- 75
2020-08-30 12:00:00 18.2 9 Nordeste 27 Oeste 0 1011.8 -- 64
2020-08-30 11:00:00 17 17 Oeste 28 Oeste 0 1011.2 -- 76
2020-08-30 10:00:00 15.8 17 Sudoeste 26 Sudoeste 0 1010.5 -- 78
2020-08-30 09:00:00 15.7 12 Sudoeste 29 Sudoeste 0 1010 -- 82
2020-08-30 08:00:00 16.7 13 Noroeste 33 Noroeste 0 1009.6 -- 69
2020-08-30 07:00:00 17.7 24 Noroeste 35 Norte 0 1008.9 -- 55
2020-08-30 06:00:00 17.7 22 Noroeste 41 Norte 0 1009 -- 60
2020-08-30 05:00:00 17.7 27 Noroeste 41 Norte 0 1008.7 -- 59
2020-08-30 04:00:00 17.9 30 Norte 45 Norte 0 1008.6 -- 63
2020-08-30 03:00:00 17.5 19 Noroeste 46 Norte 0 1008.8 -- 69
2020-08-30 02:00:00 17.6 34 Norte 48 Noroeste 0 1008.6 -- 73
2020-08-30 01:00:00 18.1 26 Norte 42 Noroeste 0 1008.7 -- 68
2020-08-30 00:00:00 18.1 28 Norte 52 Noroeste 0 1008.5 -- 64
2020-08-29 23:00:00 17.3 27 Noroeste 57 Noroeste 0 1008.3 -- 70
2020-08-29 22:00:00 17.8 37 Noroeste 55 Noroeste 0 1007.6 -- 74
2020-08-29 21:00:00 17.6 25 Norte 43 Noroeste 0 1007.3 -- 74
2020-08-29 20:00:00 18.2 28 Norte 53 Norte 0 1007.2 -- 63
2020-08-29 19:00:00 18.2 38 Noroeste 59 Noroeste 0 1006.7 -- 61
2020-08-29 18:00:00 18.3 40 Norte 58 Norte 0.8 1005.6 -- 74
2020-08-29 17:00:00 17.7 32 Norte 75 Noroeste 0.4 1004.8 -- 88
2020-08-29 16:00:00 18.8 32 Noroeste 49 Norte 0 1004.4 -- 73
2020-08-29 15:00:00 19.1 28 Norte 42 Norte 0 1004.4 -- 78
2020-08-29 14:00:00 17.9 26 Noroeste 43 Noroeste 0.6 1004 -- 76
2020-08-29 13:00:00 18.4 28 Norte 38 Norte 0 1003.6 -- 76
2020-08-29 12:00:00 15.4 11 Sudoeste 29 Oeste 4 1003.3 -- 94
2020-08-29 11:00:00 14.3 14 Sudoeste 52 Oeste 7.8 1003.2 -- 96
2020-08-29 10:00:00 14.4 23 Sudoeste 37 Oeste 2.2 1003 -- 93
2020-08-29 09:00:00 14.6 24 Oeste 44 Sudoeste 5 1002.8 -- 94
2020-08-29 08:00:00 14.7 17 Sudoeste 38 Oeste 3.6 1002.3 -- 91
2020-08-29 07:00:00 15.3 22 Oeste 47 Oeste 1.8 1002.6 -- 92
2020-08-29 06:00:00 15 26 Noroeste 60 Noroeste 1.6 1002.7 -- 89
2020-08-29 05:00:00 16.8 31 Oeste 51 Noroeste 0.4 1002.6 -- 86
2020-08-29 04:00:00 16.8 36 Oeste 54 Oeste 0 1003.1 -- 83
2020-08-29 03:00:00 16.9 37 Oeste 53 Oeste 0.4 1003.6 -- 83
2020-08-29 02:00:00 15.5 35 Oeste 65 Oeste 0.6 1004.1 -- 92
2020-08-29 01:00:00 16.7 23 Oeste 57 Noroeste 0 1004.3 -- 85
2020-08-29 00:00:00 18.7 28 Oeste 46 Oeste 0 1004.4 -- 69
2020-08-28 23:00:00 19.1 30 Noroeste 47 Noroeste 0 1004.6 -- 69
2020-08-28 22:00:00 19.2 26 Noroeste 43 Noroeste 0 1004.9 -- 69
2020-08-28 21:00:00 19.2 29 Noroeste 49 Oeste 0 1004.8 -- 67
2020-08-28 20:00:00 19.6 33 Noroeste 44 Noroeste 0 1004.8 -- 66
2020-08-28 19:00:00 19.8 27 Noroeste 41 Noroeste 0 1005.2 -- 67
2020-08-28 18:00:00 20 28 Noroeste 49 Noroeste 0 1005.2 -- 65
2020-08-28 17:00:00 19.8 34 Noroeste 49 Noroeste 0 1005.2 -- 71
2020-08-28 16:00:00 19.9 32 Noroeste 46 Noroeste 0 1005.5 -- 72
2020-08-28 15:00:00 19 32 Noroeste 50 Noroeste 0 1006.1 -- 75
2020-08-28 14:00:00 19.4 30 Oeste 49 Oeste 0.8 1006.3 -- 76
2020-08-28 13:00:00 18.9 28 Oeste 45 Oeste 0 1006.6 -- 77
2020-08-28 12:00:00 17.2 18 Noroeste 29 Oeste 2.2 1007 -- 94
2020-08-28 11:00:00 17.3 23 Oeste 36 Noroeste 0.4 1007.3 -- 92
2020-08-28 10:00:00 17.3 13 Sudoeste 28 Oeste 1.4 1007.2 -- 91
2020-08-28 09:00:00 17.4 11 Sudoeste 48 Noroeste 0.4 1007.2 -- 91
2020-08-28 08:00:00 18.6 20 Oeste 39 Oeste 0 1007.4 -- 82
2020-08-28 07:00:00 19.1 26 Noroeste 41 Noroeste 0 1007.3 -- 77
2020-08-28 06:00:00 19.1 27 Noroeste 46 Noroeste 0 1007.3 -- 78
2020-08-28 05:00:00 18.9 30 Noroeste 45 Noroeste 0.6 1007.4 -- 91
2020-08-28 04:00:00 19.5 27 Noroeste 46 Noroeste 0 1007.6 -- 91
2020-08-28 03:00:00 20 28 Noroeste 41 Noroeste 0.2 1007.9 -- 96
2020-08-28 02:00:00 21.4 15 Oeste 27 Oeste 0 1008.5 -- 89
2020-08-28 01:00:00 21.8 7 Sudoeste 15 Oeste 0 1008.9 -- 84
2020-08-28 00:00:00 22 7 Oeste 11 Oeste 0 1009.4 -- 87
2020-08-27 23:00:00 22.1 5 Oeste 12 Oeste 0 1009.9 -- 86
2020-08-27 22:00:00 22.1 5 Sudoeste 12 Oeste 0 1010.1 -- 85
2020-08-27 21:00:00 22.2 9 Oeste 15 Oeste 0 1010.1 -- 86
2020-08-27 20:00:00 22.5 10 Oeste 15 Oeste 0 1010.4 -- 85
2020-08-27 19:00:00 22.9 11 Oeste 18 Oeste 0 1011 -- 87
2020-08-27 18:00:00 23.4 13 Oeste 21 Noroeste 0 1011.1 -- 84
2020-08-27 17:00:00 23.5 12 Noroeste 21 Noroeste 0 1011.4 -- 84
2020-08-27 16:00:00 23.4 14 Noroeste 28 Oeste 0 1011.9 -- 84
2020-08-27 15:00:00 23.2 18 Noroeste 30 Noroeste 0 1012.2 -- 83
2020-08-27 14:00:00 23.8 22 Oeste 31 Oeste 0 1012.3 -- 86
2020-08-27 13:00:00 23.8 23 Oeste 31 Oeste 0 1012.4 -- 85
2020-08-27 12:00:00 24 22 Oeste 31 Oeste 0 1012.2 -- 82
2020-08-27 11:00:00 24 18 Oeste 27 Oeste 0 1011.7 -- 81
2020-08-27 10:00:00 23 10 Sudoeste 15 Sudoeste 0 1011.7 -- 83
2020-08-27 09:00:00 21 5 Sur 8 Sur 0 1012.1 -- 94
2020-08-27 08:00:00 19.9 4 Sudoeste 6 Sur 0 1011.8 -- 96
2020-08-27 07:00:00 19.8 3 Sudeste 12 Sur 0 1011.6 -- 95
2020-08-27 06:00:00 20.4 9 Sur 13 Sur 0 1011.8 -- 94
2020-08-27 05:00:00 20.5 3 Sur 10 Sudeste 0 1012.6 -- 93
2020-08-27 04:00:00 20 9 Sudeste 14 Sudeste 0 1012.7 -- 95
2020-08-27 03:00:00 20.2 10 Sudeste 15 Sudeste 0 1012.8 -- 96
2020-08-27 02:00:00 20.3 9 Sudeste 14 Sudeste 0 1013.1 -- 95
2020-08-27 01:00:00 20.6 11 Este 17 Este 0 1013.6 -- 95
2020-08-27 00:00:00 20.6 8 Este 13 Este 0 1014.2 -- 95
2020-08-26 23:00:00 20.9 6 Este 17 Sudeste 0 1014.5 -- 93
2020-08-26 22:00:00 21.2 9 Este 17 Este 0 1014.4 -- 91
2020-08-26 21:00:00 21.7 13 Este 21 Este 0 1013.7 -- 89
2020-08-26 20:00:00 22.5 17 Este 27 Este 0 1013.7 -- 85
2020-08-26 19:00:00 22.8 19 Este 27 Este 0 1013.6 -- 85
2020-08-26 18:00:00 23.4 21 Este 32 Nordeste 0 1013.7 -- 82
2020-08-26 17:00:00 23.4 24 Nordeste 32 Nordeste 0 1013.9 -- 84
2020-08-26 16:00:00 23.8 24 Nordeste 31 Nordeste 0 1014 -- 82
2020-08-26 15:00:00 24 21 Nordeste 28 Nordeste 0 1014 -- 82
2020-08-26 14:00:00 24.6 20 Nordeste 26 Este 0 1014.1 -- 80
2020-08-26 13:00:00 24.6 17 Nordeste 22 Nordeste 0 1014.3 -- 81
2020-08-26 12:00:00 24.2 13 Nordeste 17 Nordeste 0 1014.3 -- 83
2020-08-26 11:00:00 24.1 8 Este 13 Este 0 1014 -- 83
2020-08-26 10:00:00 22 5 Sudeste 9 Sudeste 0 1013.7 -- 91
2020-08-26 09:00:00 21.2 6 Sudeste 9 Sudeste 0 1013.5 -- 96
2020-08-26 08:00:00 20.9 8 Sudeste 9 Sudeste 0 1013.1 -- 96
2020-08-26 07:00:00 20.9 2 Nordeste 5 Nordeste 0 1012.7 -- 96
2020-08-26 06:00:00 20.6 0 Calma 8 Norte 0 1012.5 -- 95
2020-08-26 05:00:00 21 5 Norte 8 Norte 0 1012.5 -- 96
2020-08-26 04:00:00 21.1 0 Calma 5 Sudeste 0 1012.3 -- 95
2020-08-26 03:00:00 21.3 3 Nordeste 6 Noroeste 0 1012.5 -- 95
2020-08-26 02:00:00 21.4 3 Noroeste 11 Noroeste 0 1012.9 -- 93
2020-08-26 01:00:00 21.7 6 Noroeste 10 Noroeste 0 1013.1 -- 90
2020-08-26 00:00:00 22.3 5 Sudoeste 8 Sudoeste 0 1013.1 -- 78